sensor_id;sensor_type;location;lat;lon;timestamp;P1;durP1;ratioP1;P2;durP2;ratioP2
59571;SDS011;70118;45.638;11.714;2023-09-19T00:01:42;8.55;;;4.78;;
59571;SDS011;70118;45.638;11.714;2023-09-19T00:04:11;9.52;;;4.88;;
59571;SDS011;70118;45.638;11.714;2023-09-19T00:06:37;8.15;;;5.05;;
59571;SDS011;70118;45.638;11.714;2023-09-19T00:09:03;9.07;;;5.10;;
59571;SDS011;70118;45.638;11.714;2023-09-19T00:11:30;8.40;;;5.10;;
59571;SDS011;70118;45.638;11.714;2023-09-19T00:13:56;9.10;;;4.78;;
59571;SDS011;70118;45.638;11.714;2023-09-19T00:16:25;7.35;;;4.65;;
59571;SDS011;70118;45.638;11.714;2023-09-19T00:18:52;8.60;;;4.75;;
59571;SDS011;70118;45.638;11.714;2023-09-19T00:21:18;8.17;;;5.00;;
59571;SDS011;70118;45.638;11.714;2023-09-19T00:23:47;8.48;;;4.25;;
59571;SDS011;70118;45.638;11.714;2023-09-19T00:26:13;7.85;;;4.68;;
59571;SDS011;70118;45.638;11.714;2023-09-19T00:28:39;9.05;;;4.70;;
59571;SDS011;70118;45.638;11.714;2023-09-19T00:31:07;8.45;;;4.20;;
59571;SDS011;70118;45.638;11.714;2023-09-19T00:33:35;6.70;;;4.13;;
59571;SDS011;70118;45.638;11.714;2023-09-19T00:36:01;8.65;;;4.30;;
59571;SDS011;70118;45.638;11.714;2023-09-19T00:38:30;6.63;;;4.00;;
59571;SDS011;70118;45.638;11.714;2023-09-19T00:40:57;9.52;;;4.38;;
59571;SDS011;70118;45.638;11.714;2023-09-19T00:43:26;7.65;;;4.55;;
59571;SDS011;70118;45.638;11.714;2023-09-19T00:45:53;8.47;;;4.17;;
59571;SDS011;70118;45.638;11.714;2023-09-19T00:48:20;8.88;;;4.82;;
59571;SDS011;70118;45.638;11.714;2023-09-19T00:50:47;7.85;;;4.68;;
59571;SDS011;70118;45.638;11.714;2023-09-19T00:53:18;10.30;;;4.90;;
59571;SDS011;70118;45.638;11.714;2023-09-19T00:55:46;8.32;;;4.88;;
59571;SDS011;70118;45.638;11.714;2023-09-19T00:58:13;8.53;;;4.93;;
59571;SDS011;70118;45.638;11.714;2023-09-19T01:00:41;7.75;;;4.97;;
59571;SDS011;70118;45.638;11.714;2023-09-19T01:03:09;10.50;;;5.40;;
59571;SDS011;70118;45.638;11.714;2023-09-19T01:05:37;9.25;;;5.13;;
59571;SDS011;70118;45.638;11.714;2023-09-19T01:08:09;10.50;;;5.20;;
59571;SDS011;70118;45.638;11.714;2023-09-19T01:10:37;11.13;;;5.40;;
59571;SDS011;70118;45.638;11.714;2023-09-19T01:13:39;9.70;;;4.75;;
59571;SDS011;70118;45.638;11.714;2023-09-19T01:16:35;10.20;;;5.00;;
59571;SDS011;70118;45.638;11.714;2023-09-19T01:19:26;7.80;;;4.63;;
59571;SDS011;70118;45.638;11.714;2023-09-19T01:30:56;10.25;;;3.88;;
59571;SDS011;70118;45.638;11.714;2023-09-19T01:33:25;8.43;;;4.22;;
59571;SDS011;70118;45.638;11.714;2023-09-19T01:35:51;7.70;;;4.10;;
59571;SDS011;70118;45.638;11.714;2023-09-19T01:38:23;7.55;;;4.25;;
59571;SDS011;70118;45.638;11.714;2023-09-19T01:41:25;8.55;;;4.05;;
59571;SDS011;70118;45.638;11.714;2023-09-19T01:43:47;8.40;;;4.53;;
59571;SDS011;70118;45.638;11.714;2023-09-19T01:46:21;8.98;;;3.97;;
59571;SDS011;70118;45.638;11.714;2023-09-19T01:52:02;9.45;;;4.28;;
59571;SDS011;70118;45.638;11.714;2023-09-19T01:54:32;8.27;;;4.32;;
59571;SDS011;70118;45.638;11.714;2023-09-19T01:57:14;10.20;;;4.30;;
59571;SDS011;70118;45.638;11.714;2023-09-19T02:00:01;9.48;;;4.32;;
59571;SDS011;70118;45.638;11.714;2023-09-19T02:02:38;9.47;;;4.47;;
59571;SDS011;70118;45.638;11.714;2023-09-19T02:05:07;8.13;;;4.72;;
59571;SDS011;70118;45.638;11.714;2023-09-19T02:07:33;8.43;;;4.45;;
59571;SDS011;70118;45.638;11.714;2023-09-19T02:10:03;7.53;;;4.35;;
59571;SDS011;70118;45.638;11.714;2023-09-19T02:12:31;8.23;;;4.15;;
59571;SDS011;70118;45.638;11.714;2023-09-19T02:14:58;7.87;;;4.40;;
59571;SDS011;70118;45.638;11.714;2023-09-19T02:17:26;9.32;;;4.30;;
59571;SDS011;70118;45.638;11.714;2023-09-19T02:19:53;6.95;;;3.90;;
59571;SDS011;70118;45.638;11.714;2023-09-19T02:22:22;8.23;;;3.95;;
59571;SDS011;70118;45.638;11.714;2023-09-19T02:24:48;9.67;;;4.43;;
59571;SDS011;70118;45.638;11.714;2023-09-19T02:27:14;7.63;;;4.60;;
59571;SDS011;70118;45.638;11.714;2023-09-19T02:29:41;9.27;;;4.45;;
59571;SDS011;70118;45.638;11.714;2023-09-19T02:32:07;9.07;;;4.30;;
59571;SDS011;70118;45.638;11.714;2023-09-19T02:34:34;7.60;;;4.28;;
59571;SDS011;70118;45.638;11.714;2023-09-19T02:37:04;8.63;;;4.37;;
59571;SDS011;70118;45.638;11.714;2023-09-19T02:39:33;7.80;;;4.20;;
59571;SDS011;70118;45.638;11.714;2023-09-19T02:42:00;7.47;;;4.68;;
59571;SDS011;70118;45.638;11.714;2023-09-19T02:44:27;7.03;;;4.15;;
59571;SDS011;70118;45.638;11.714;2023-09-19T02:46:53;8.47;;;3.93;;
59571;SDS011;70118;45.638;11.714;2023-09-19T02:49:19;8.93;;;4.22;;
59571;SDS011;70118;45.638;11.714;2023-09-19T02:51:45;7.30;;;4.03;;
59571;SDS011;70118;45.638;11.714;2023-09-19T02:54:12;8.80;;;4.70;;
59571;SDS011;70118;45.638;11.714;2023-09-19T02:56:38;8.70;;;4.72;;
59571;SDS011;70118;45.638;11.714;2023-09-19T02:59:04;7.63;;;4.40;;
59571;SDS011;70118;45.638;11.714;2023-09-19T03:01:31;8.30;;;4.63;;
59571;SDS011;70118;45.638;11.714;2023-09-19T03:03:57;7.63;;;4.17;;
59571;SDS011;70118;45.638;11.714;2023-09-19T03:06:23;9.23;;;4.57;;
59571;SDS011;70118;45.638;11.714;2023-09-19T03:08:49;9.27;;;4.80;;
59571;SDS011;70118;45.638;11.714;2023-09-19T03:11:16;8.55;;;4.53;;
59571;SDS011;70118;45.638;11.714;2023-09-19T03:13:50;9.02;;;4.22;;
59571;SDS011;70118;45.638;11.714;2023-09-19T03:16:17;7.97;;;4.40;;
59571;SDS011;70118;45.638;11.714;2023-09-19T03:18:44;8.02;;;4.40;;
59571;SDS011;70118;45.638;11.714;2023-09-19T03:21:10;8.15;;;4.43;;
59571;SDS011;70118;45.638;11.714;2023-09-19T03:23:36;7.20;;;4.13;;
59571;SDS011;70118;45.638;11.714;2023-09-19T03:26:03;7.63;;;4.50;;
59571;SDS011;70118;45.638;11.714;2023-09-19T03:28:32;6.82;;;4.03;;
59571;SDS011;70118;45.638;11.714;2023-09-19T03:31:00;7.95;;;4.15;;
59571;SDS011;70118;45.638;11.714;2023-09-19T03:33:27;8.98;;;4.57;;
59571;SDS011;70118;45.638;11.714;2023-09-19T03:35:53;8.00;;;4.18;;
59571;SDS011;70118;45.638;11.714;2023-09-19T03:38:20;10.07;;;4.43;;
59571;SDS011;70118;45.638;11.714;2023-09-19T03:40:47;7.45;;;4.32;;
59571;SDS011;70118;45.638;11.714;2023-09-19T03:43:14;7.63;;;4.40;;
59571;SDS011;70118;45.638;11.714;2023-09-19T03:45:40;8.40;;;3.70;;
59571;SDS011;70118;45.638;11.714;2023-09-19T03:48:09;7.88;;;4.25;;
59571;SDS011;70118;45.638;11.714;2023-09-19T03:50:35;6.33;;;3.53;;
59571;SDS011;70118;45.638;11.714;2023-09-19T03:53:01;9.52;;;4.60;;
59571;SDS011;70118;45.638;11.714;2023-09-19T03:55:27;7.68;;;4.35;;
59571;SDS011;70118;45.638;11.714;2023-09-19T03:57:54;8.35;;;4.57;;
59571;SDS011;70118;45.638;11.714;2023-09-19T04:00:20;7.20;;;3.90;;
59571;SDS011;70118;45.638;11.714;2023-09-19T04:02:48;10.32;;;3.80;;
59571;SDS011;70118;45.638;11.714;2023-09-19T04:05:16;7.95;;;4.18;;
59571;SDS011;70118;45.638;11.714;2023-09-19T04:07:42;6.82;;;3.60;;
59571;SDS011;70118;45.638;11.714;2023-09-19T04:10:08;8.00;;;3.80;;
59571;SDS011;70118;45.638;11.714;2023-09-19T04:12:36;7.28;;;3.78;;
59571;SDS011;70118;45.638;11.714;2023-09-19T04:15:04;5.85;;;3.28;;
59571;SDS011;70118;45.638;11.714;2023-09-19T04:17:31;7.20;;;3.92;;
59571;SDS011;70118;45.638;11.714;2023-09-19T04:19:59;7.17;;;3.30;;
59571;SDS011;70118;45.638;11.714;2023-09-19T04:22:25;8.23;;;3.65;;
59571;SDS011;70118;45.638;11.714;2023-09-19T04:24:51;7.95;;;3.58;;
59571;SDS011;70118;45.638;11.714;2023-09-19T04:27:17;6.97;;;3.40;;
59571;SDS011;70118;45.638;11.714;2023-09-19T04:29:44;7.33;;;3.10;;
59571;SDS011;70118;45.638;11.714;2023-09-19T04:32:10;7.30;;;3.38;;
59571;SDS011;70118;45.638;11.714;2023-09-19T04:34:41;7.43;;;3.10;;
59571;SDS011;70118;45.638;11.714;2023-09-19T04:37:07;7.07;;;2.90;;
59571;SDS011;70118;45.638;11.714;2023-09-19T04:39:32;6.63;;;3.17;;
59571;SDS011;70118;45.638;11.714;2023-09-19T04:41:59;5.47;;;2.47;;
59571;SDS011;70118;45.638;11.714;2023-09-19T04:44:25;5.97;;;2.72;;
59571;SDS011;70118;45.638;11.714;2023-09-19T04:46:50;7.10;;;2.77;;
59571;SDS011;70118;45.638;11.714;2023-09-19T04:49:16;6.47;;;2.90;;
59571;SDS011;70118;45.638;11.714;2023-09-19T04:51:43;4.88;;;2.50;;
59571;SDS011;70118;45.638;11.714;2023-09-19T04:54:09;4.93;;;2.43;;
59571;SDS011;70118;45.638;11.714;2023-09-19T04:56:35;6.47;;;2.30;;
59571;SDS011;70118;45.638;11.714;2023-09-19T04:59:00;6.37;;;2.20;;
59571;SDS011;70118;45.638;11.714;2023-09-19T05:01:26;5.47;;;2.40;;
59571;SDS011;70118;45.638;11.714;2023-09-19T05:03:52;5.50;;;2.10;;
59571;SDS011;70118;45.638;11.714;2023-09-19T05:06:22;4.70;;;1.80;;
59571;SDS011;70118;45.638;11.714;2023-09-19T05:08:48;4.83;;;2.00;;
59571;SDS011;70118;45.638;11.714;2023-09-19T05:11:19;5.95;;;2.30;;
59571;SDS011;70118;45.638;11.714;2023-09-19T05:13:47;5.15;;;2.00;;
59571;SDS011;70118;45.638;11.714;2023-09-19T05:16:13;6.05;;;2.00;;
59571;SDS011;70118;45.638;11.714;2023-09-19T05:18:39;4.73;;;2.00;;
59571;SDS011;70118;45.638;11.714;2023-09-19T05:21:05;4.20;;;1.80;;
59571;SDS011;70118;45.638;11.714;2023-09-19T05:23:30;5.32;;;2.22;;
59571;SDS011;70118;45.638;11.714;2023-09-19T05:25:56;5.47;;;2.10;;
59571;SDS011;70118;45.638;11.714;2023-09-19T05:28:25;5.93;;;2.22;;
59571;SDS011;70118;45.638;11.714;2023-09-19T05:30:52;5.13;;;2.05;;
59571;SDS011;70118;45.638;11.714;2023-09-19T05:33:18;4.43;;;2.05;;
59571;SDS011;70118;45.638;11.714;2023-09-19T05:35:45;5.97;;;1.93;;
59571;SDS011;70118;45.638;11.714;2023-09-19T05:38:13;5.25;;;2.00;;
59571;SDS011;70118;45.638;11.714;2023-09-19T05:40:44;6.30;;;2.50;;
59571;SDS011;70118;45.638;11.714;2023-09-19T05:43:11;4.95;;;2.40;;
59571;SDS011;70118;45.638;11.714;2023-09-19T05:45:40;5.82;;;2.60;;
59571;SDS011;70118;45.638;11.714;2023-09-19T05:48:13;6.13;;;2.50;;
59571;SDS011;70118;45.638;11.714;2023-09-19T05:50:41;5.20;;;2.30;;
59571;SDS011;70118;45.638;11.714;2023-09-19T05:53:07;7.60;;;2.42;;
59571;SDS011;70118;45.638;11.714;2023-09-19T05:55:37;10.65;;;3.08;;
59571;SDS011;70118;45.638;11.714;2023-09-19T05:58:04;10.00;;;3.28;;
59571;SDS011;70118;45.638;11.714;2023-09-19T06:00:30;5.90;;;2.50;;
59571;SDS011;70118;45.638;11.714;2023-09-19T06:02:58;6.82;;;2.88;;
59571;SDS011;70118;45.638;11.714;2023-09-19T06:05:26;7.47;;;2.92;;
59571;SDS011;70118;45.638;11.714;2023-09-19T06:07:53;6.85;;;2.88;;
59571;SDS011;70118;45.638;11.714;2023-09-19T06:10:19;7.32;;;2.85;;
59571;SDS011;70118;45.638;11.714;2023-09-19T06:12:46;6.20;;;2.90;;
59571;SDS011;70118;45.638;11.714;2023-09-19T06:15:17;8.10;;;3.15;;
59571;SDS011;70118;45.638;11.714;2023-09-19T06:17:46;10.73;;;3.13;;
59571;SDS011;70118;45.638;11.714;2023-09-19T06:20:14;6.55;;;2.85;;
59571;SDS011;70118;45.638;11.714;2023-09-19T06:22:46;6.95;;;3.15;;
59571;SDS011;70118;45.638;11.714;2023-09-19T06:25:12;7.13;;;2.77;;
59571;SDS011;70118;45.638;11.714;2023-09-19T06:27:47;6.68;;;3.33;;
59571;SDS011;70118;45.638;11.714;2023-09-19T06:30:23;7.25;;;2.90;;
59571;SDS011;70118;45.638;11.714;2023-09-19T06:32:55;7.00;;;3.03;;
59571;SDS011;70118;45.638;11.714;2023-09-19T06:35:25;7.20;;;3.20;;
59571;SDS011;70118;45.638;11.714;2023-09-19T06:37:55;7.33;;;3.20;;
59571;SDS011;70118;45.638;11.714;2023-09-19T06:40:23;5.97;;;2.60;;
59571;SDS011;70118;45.638;11.714;2023-09-19T06:42:53;5.85;;;2.92;;
59571;SDS011;70118;45.638;11.714;2023-09-19T06:45:23;6.63;;;2.60;;
59571;SDS011;70118;45.638;11.714;2023-09-19T06:47:53;6.13;;;3.25;;
59571;SDS011;70118;45.638;11.714;2023-09-19T06:50:23;6.43;;;2.53;;
59571;SDS011;70118;45.638;11.714;2023-09-19T06:52:50;7.20;;;2.90;;
59571;SDS011;70118;45.638;11.714;2023-09-19T06:55:19;10.27;;;5.00;;
59571;SDS011;70118;45.638;11.714;2023-09-19T06:57:46;9.48;;;3.80;;
59571;SDS011;70118;45.638;11.714;2023-09-19T07:00:12;5.97;;;3.05;;
59571;SDS011;70118;45.638;11.714;2023-09-19T07:03:02;9.87;;;3.60;;
59571;SDS011;70118;45.638;11.714;2023-09-19T07:05:36;8.25;;;3.53;;
59571;SDS011;70118;45.638;11.714;2023-09-19T07:08:04;8.98;;;3.72;;
59571;SDS011;70118;45.638;11.714;2023-09-19T07:10:31;9.13;;;3.42;;
59571;SDS011;70118;45.638;11.714;2023-09-19T07:13:02;7.88;;;3.60;;
59571;SDS011;70118;45.638;11.714;2023-09-19T07:15:32;8.07;;;3.50;;
59571;SDS011;70118;45.638;11.714;2023-09-19T07:18:04;7.38;;;4.03;;
59571;SDS011;70118;45.638;11.714;2023-09-19T07:20:31;8.40;;;3.60;;
59571;SDS011;70118;45.638;11.714;2023-09-19T07:22:58;8.00;;;3.63;;
59571;SDS011;70118;45.638;11.714;2023-09-19T07:25:27;8.73;;;3.38;;
59571;SDS011;70118;45.638;11.714;2023-09-19T07:27:56;8.27;;;3.60;;
59571;SDS011;70118;45.638;11.714;2023-09-19T07:30:25;9.23;;;3.90;;
59571;SDS011;70118;45.638;11.714;2023-09-19T07:32:51;10.85;;;4.32;;
59571;SDS011;70118;45.638;11.714;2023-09-19T07:35:17;7.50;;;3.67;;
59571;SDS011;70118;45.638;11.714;2023-09-19T07:37:47;8.48;;;3.88;;
59571;SDS011;70118;45.638;11.714;2023-09-19T07:40:16;7.00;;;3.13;;
59571;SDS011;70118;45.638;11.714;2023-09-19T07:42:43;8.45;;;3.60;;
59571;SDS011;70118;45.638;11.714;2023-09-19T07:45:12;10.30;;;4.57;;
59571;SDS011;70118;45.638;11.714;2023-09-19T07:47:48;10.70;;;4.88;;
59571;SDS011;70118;45.638;11.714;2023-09-19T07:50:18;10.18;;;4.80;;
59571;SDS011;70118;45.638;11.714;2023-09-19T07:52:45;8.33;;;3.97;;
59571;SDS011;70118;45.638;11.714;2023-09-19T07:55:16;9.02;;;3.90;;
59571;SDS011;70118;45.638;11.714;2023-09-19T07:57:42;8.52;;;3.70;;
59571;SDS011;70118;45.638;11.714;2023-09-19T08:00:09;9.13;;;3.67;;
59571;SDS011;70118;45.638;11.714;2023-09-19T08:02:38;7.47;;;3.75;;
59571;SDS011;70118;45.638;11.714;2023-09-19T08:05:05;7.83;;;3.67;;
59571;SDS011;70118;45.638;11.714;2023-09-19T08:07:35;9.18;;;3.50;;
59571;SDS011;70118;45.638;11.714;2023-09-19T08:10:02;7.53;;;3.70;;
59571;SDS011;70118;45.638;11.714;2023-09-19T08:12:38;8.75;;;3.70;;
59571;SDS011;70118;45.638;11.714;2023-09-19T08:15:12;7.57;;;3.60;;
59571;SDS011;70118;45.638;11.714;2023-09-19T08:17:39;8.13;;;4.53;;
59571;SDS011;70118;45.638;11.714;2023-09-19T08:20:06;8.27;;;3.50;;
59571;SDS011;70118;45.638;11.714;2023-09-19T08:22:32;10.23;;;4.07;;
59571;SDS011;70118;45.638;11.714;2023-09-19T08:24:59;7.95;;;3.72;;
59571;SDS011;70118;45.638;11.714;2023-09-19T08:27:26;7.15;;;3.55;;
59571;SDS011;70118;45.638;11.714;2023-09-19T08:29:53;9.07;;;3.80;;
59571;SDS011;70118;45.638;11.714;2023-09-19T08:32:18;6.25;;;3.05;;
59571;SDS011;70118;45.638;11.714;2023-09-19T08:34:49;7.05;;;3.15;;
59571;SDS011;70118;45.638;11.714;2023-09-19T08:37:15;10.82;;;4.25;;
59571;SDS011;70118;45.638;11.714;2023-09-19T08:39:43;7.23;;;4.07;;
59571;SDS011;70118;45.638;11.714;2023-09-19T08:42:09;8.77;;;4.10;;
59571;SDS011;70118;45.638;11.714;2023-09-19T08:44:37;9.77;;;4.13;;
59571;SDS011;70118;45.638;11.714;2023-09-19T08:47:09;10.30;;;5.10;;
59571;SDS011;70118;45.638;11.714;2023-09-19T08:52:41;9.47;;;4.17;;
59571;SDS011;70118;45.638;11.714;2023-09-19T08:55:07;12.05;;;6.88;;
59571;SDS011;70118;45.638;11.714;2023-09-19T08:57:38;7.28;;;5.03;;
59571;SDS011;70118;45.638;11.714;2023-09-19T09:00:08;9.45;;;4.60;;
59571;SDS011;70118;45.638;11.714;2023-09-19T09:02:38;7.63;;;3.95;;
59571;SDS011;70118;45.638;11.714;2023-09-19T09:05:10;11.23;;;5.20;;
59571;SDS011;70118;45.638;11.714;2023-09-19T09:07:40;9.40;;;4.75;;
59571;SDS011;70118;45.638;11.714;2023-09-19T09:10:06;10.20;;;4.40;;
59571;SDS011;70118;45.638;11.714;2023-09-19T09:12:32;9.35;;;4.90;;
59571;SDS011;70118;45.638;11.714;2023-09-19T09:15:02;8.75;;;4.75;;
59571;SDS011;70118;45.638;11.714;2023-09-19T09:17:29;8.10;;;4.00;;
59571;SDS011;70118;45.638;11.714;2023-09-19T09:19:55;8.25;;;4.53;;
59571;SDS011;70118;45.638;11.714;2023-09-19T09:22:22;8.38;;;4.05;;
59571;SDS011;70118;45.638;11.714;2023-09-19T09:24:55;9.50;;;4.78;;
59571;SDS011;70118;45.638;11.714;2023-09-19T09:27:31;8.63;;;4.40;;
59571;SDS011;70118;45.638;11.714;2023-09-19T09:29:59;14.37;;;6.53;;
59571;SDS011;70118;45.638;11.714;2023-09-19T09:32:25;9.20;;;5.18;;
59571;SDS011;70118;45.638;11.714;2023-09-19T09:34:59;8.68;;;4.60;;
59571;SDS011;70118;45.638;11.714;2023-09-19T09:37:26;11.55;;;5.95;;
59571;SDS011;70118;45.638;11.714;2023-09-19T09:40:00;14.07;;;6.85;;
59571;SDS011;70118;45.638;11.714;2023-09-19T09:42:39;9.40;;;5.17;;
59571;SDS011;70118;45.638;11.714;2023-09-19T09:45:15;9.38;;;4.97;;
59571;SDS011;70118;45.638;11.714;2023-09-19T09:47:45;8.98;;;4.55;;
59571;SDS011;70118;45.638;11.714;2023-09-19T09:50:30;9.20;;;4.60;;
59571;SDS011;70118;45.638;11.714;2023-09-19T09:53:20;11.23;;;4.80;;
59571;SDS011;70118;45.638;11.714;2023-09-19T09:56:23;7.97;;;4.10;;
59571;SDS011;70118;45.638;11.714;2023-09-19T09:58:52;10.23;;;5.10;;
59571;SDS011;70118;45.638;11.714;2023-09-19T10:01:20;9.35;;;4.60;;
59571;SDS011;70118;45.638;11.714;2023-09-19T10:03:52;9.40;;;4.53;;
59571;SDS011;70118;45.638;11.714;2023-09-19T10:06:23;8.02;;;4.30;;
59571;SDS011;70118;45.638;11.714;2023-09-19T10:09:01;11.23;;;5.40;;
59571;SDS011;70118;45.638;11.714;2023-09-19T10:11:47;8.00;;;4.70;;
59571;SDS011;70118;45.638;11.714;2023-09-19T10:14:22;10.38;;;4.72;;
59571;SDS011;70118;45.638;11.714;2023-09-19T10:16:56;8.95;;;4.57;;
59571;SDS011;70118;45.638;11.714;2023-09-19T10:19:40;10.20;;;4.00;;
59571;SDS011;70118;45.638;11.714;2023-09-19T10:22:12;10.73;;;4.05;;
59571;SDS011;70118;45.638;11.714;2023-09-19T10:24:46;8.07;;;4.43;;
59571;SDS011;70118;45.638;11.714;2023-09-19T10:27:17;7.72;;;4.40;;
59571;SDS011;70118;45.638;11.714;2023-09-19T10:29:44;8.63;;;4.05;;
59571;SDS011;70118;45.638;11.714;2023-09-19T10:32:15;9.37;;;4.90;;
59571;SDS011;70118;45.638;11.714;2023-09-19T10:34:45;8.60;;;4.57;;
59571;SDS011;70118;45.638;11.714;2023-09-19T10:37:12;9.95;;;4.70;;
59571;SDS011;70118;45.638;11.714;2023-09-19T10:39:39;8.55;;;4.10;;
59571;SDS011;70118;45.638;11.714;2023-09-19T10:42:06;7.35;;;3.45;;
59571;SDS011;70118;45.638;11.714;2023-09-19T10:44:37;8.10;;;4.00;;
59571;SDS011;70118;45.638;11.714;2023-09-19T10:47:09;8.27;;;4.07;;
59571;SDS011;70118;45.638;11.714;2023-09-19T10:49:35;8.10;;;3.90;;
59571;SDS011;70118;45.638;11.714;2023-09-19T10:52:14;9.85;;;3.92;;
59571;SDS011;70118;45.638;11.714;2023-09-19T10:54:48;6.82;;;3.88;;
59571;SDS011;70118;45.638;11.714;2023-09-19T10:57:21;12.93;;;5.57;;
59571;SDS011;70118;45.638;11.714;2023-09-19T11:00:02;7.50;;;4.03;;
59571;SDS011;70118;45.638;11.714;2023-09-19T11:30:43;8.23;;;3.95;;
59571;SDS011;70118;45.638;11.714;2023-09-19T11:33:27;7.45;;;3.67;;
59571;SDS011;70118;45.638;11.714;2023-09-19T11:36:01;6.70;;;3.25;;
59571;SDS011;70118;45.638;11.714;2023-09-19T11:43:53;7.55;;;3.47;;
59571;SDS011;70118;45.638;11.714;2023-09-19T11:46:28;6.60;;;3.80;;
59571;SDS011;70118;45.638;11.714;2023-09-19T11:49:08;7.45;;;3.65;;
59571;SDS011;70118;45.638;11.714;2023-09-19T11:51:41;9.90;;;3.73;;
59571;SDS011;70118;45.638;11.714;2023-09-19T11:54:12;6.75;;;3.75;;
59571;SDS011;70118;45.638;11.714;2023-09-19T11:56:43;5.75;;;3.33;;
59571;SDS011;70118;45.638;11.714;2023-09-19T11:59:10;7.25;;;3.28;;
59571;SDS011;70118;45.638;11.714;2023-09-19T12:01:37;6.20;;;3.60;;
59571;SDS011;70118;45.638;11.714;2023-09-19T12:04:08;7.93;;;3.60;;
59571;SDS011;70118;45.638;11.714;2023-09-19T12:06:37;9.32;;;3.35;;
59571;SDS011;70118;45.638;11.714;2023-09-19T12:09:12;9.30;;;3.60;;
59571;SDS011;70118;45.638;11.714;2023-09-19T12:11:42;7.53;;;3.55;;
59571;SDS011;70118;45.638;11.714;2023-09-19T12:14:11;7.70;;;3.60;;
59571;SDS011;70118;45.638;11.714;2023-09-19T12:16:56;7.27;;;3.60;;
59571;SDS011;70118;45.638;11.714;2023-09-19T12:19:23;7.85;;;3.75;;
59571;SDS011;70118;45.638;11.714;2023-09-19T12:21:57;8.90;;;3.88;;
59571;SDS011;70118;45.638;11.714;2023-09-19T12:24:34;8.30;;;3.70;;
59571;SDS011;70118;45.638;11.714;2023-09-19T12:27:04;7.88;;;3.70;;
59571;SDS011;70118;45.638;11.714;2023-09-19T12:29:41;8.23;;;3.20;;
59571;SDS011;70118;45.638;11.714;2023-09-19T12:32:14;6.45;;;3.22;;
59571;SDS011;70118;45.638;11.714;2023-09-19T12:34:50;7.05;;;3.50;;
59571;SDS011;70118;45.638;11.714;2023-09-19T12:37:17;6.60;;;3.50;;
59571;SDS011;70118;45.638;11.714;2023-09-19T12:39:48;8.52;;;3.38;;
59571;SDS011;70118;45.638;11.714;2023-09-19T12:42:20;6.27;;;3.17;;
59571;SDS011;70118;45.638;11.714;2023-09-19T12:44:48;7.85;;;3.30;;
59571;SDS011;70118;45.638;11.714;2023-09-19T12:47:20;7.07;;;3.28;;
59571;SDS011;70118;45.638;11.714;2023-09-19T12:52:47;6.65;;;3.45;;
59571;SDS011;70118;45.638;11.714;2023-09-19T12:55:27;7.77;;;3.30;;
59571;SDS011;70118;45.638;11.714;2023-09-19T13:00:41;6.45;;;3.60;;
59571;SDS011;70118;45.638;11.714;2023-09-19T13:08:24;6.43;;;3.30;;
59571;SDS011;70118;45.638;11.714;2023-09-19T13:11:01;8.63;;;3.38;;
59571;SDS011;70118;45.638;11.714;2023-09-19T13:13:38;6.78;;;3.55;;
59571;SDS011;70118;45.638;11.714;2023-09-19T13:16:06;6.00;;;3.20;;
59571;SDS011;70118;45.638;11.714;2023-09-19T13:18:54;7.88;;;3.65;;
59571;SDS011;70118;45.638;11.714;2023-09-19T13:21:31;6.50;;;2.97;;
59571;SDS011;70118;45.638;11.714;2023-09-19T13:24:21;8.77;;;3.28;;
59571;SDS011;70118;45.638;11.714;2023-09-19T13:26:55;6.43;;;3.00;;
59571;SDS011;70118;45.638;11.714;2023-09-19T13:29:22;6.18;;;3.17;;
59571;SDS011;70118;45.638;11.714;2023-09-19T13:31:52;5.90;;;3.00;;
59571;SDS011;70118;45.638;11.714;2023-09-19T13:34:19;6.23;;;3.07;;
59571;SDS011;70118;45.638;11.714;2023-09-19T13:36:52;7.72;;;3.30;;
59571;SDS011;70118;45.638;11.714;2023-09-19T13:39:25;5.97;;;2.92;;
59571;SDS011;70118;45.638;11.714;2023-09-19T13:41:51;7.18;;;3.22;;
59571;SDS011;70118;45.638;11.714;2023-09-19T13:44:16;6.53;;;3.20;;
59571;SDS011;70118;45.638;11.714;2023-09-19T13:46:43;7.38;;;2.88;;
59571;SDS011;70118;45.638;11.714;2023-09-19T13:49:11;7.63;;;3.25;;
59571;SDS011;70118;45.638;11.714;2023-09-19T13:51:37;10.57;;;3.30;;
59571;SDS011;70118;45.638;11.714;2023-09-19T13:54:03;6.50;;;3.00;;
59571;SDS011;70118;45.638;11.714;2023-09-19T13:56:28;6.55;;;3.05;;
59571;SDS011;70118;45.638;11.714;2023-09-19T13:58:56;6.45;;;3.10;;
59571;SDS011;70118;45.638;11.714;2023-09-19T14:01:22;6.22;;;2.95;;
59571;SDS011;70118;45.638;11.714;2023-09-19T14:03:47;7.37;;;3.10;;
59571;SDS011;70118;45.638;11.714;2023-09-19T14:06:17;6.82;;;2.92;;
59571;SDS011;70118;45.638;11.714;2023-09-19T14:08:44;6.50;;;3.30;;
59571;SDS011;70118;45.638;11.714;2023-09-19T14:11:14;7.35;;;3.05;;
59571;SDS011;70118;45.638;11.714;2023-09-19T14:13:41;5.20;;;3.17;;
59571;SDS011;70118;45.638;11.714;2023-09-19T14:16:12;6.97;;;3.28;;
59571;SDS011;70118;45.638;11.714;2023-09-19T14:18:38;6.05;;;2.88;;
59571;SDS011;70118;45.638;11.714;2023-09-19T14:21:05;5.22;;;2.72;;
59571;SDS011;70118;45.638;11.714;2023-09-19T14:23:37;5.00;;;2.55;;
59571;SDS011;70118;45.638;11.714;2023-09-19T14:26:03;6.93;;;3.10;;
59571;SDS011;70118;45.638;11.714;2023-09-19T14:28:33;7.35;;;3.00;;
59571;SDS011;70118;45.638;11.714;2023-09-19T14:31:07;5.78;;;2.67;;
59571;SDS011;70118;45.638;11.714;2023-09-19T14:33:36;6.03;;;2.70;;
59571;SDS011;70118;45.638;11.714;2023-09-19T14:36:06;5.80;;;2.80;;
59571;SDS011;70118;45.638;11.714;2023-09-19T14:38:34;5.90;;;3.00;;
59571;SDS011;70118;45.638;11.714;2023-09-19T14:41:01;5.70;;;2.75;;
59571;SDS011;70118;45.638;11.714;2023-09-19T14:43:28;5.63;;;2.63;;
59571;SDS011;70118;45.638;11.714;2023-09-19T14:46:04;7.85;;;2.95;;
59571;SDS011;70118;45.638;11.714;2023-09-19T14:48:35;6.35;;;3.10;;
59571;SDS011;70118;45.638;11.714;2023-09-19T14:51:05;5.00;;;2.90;;
59571;SDS011;70118;45.638;11.714;2023-09-19T14:53:34;7.80;;;3.10;;
59571;SDS011;70118;45.638;11.714;2023-09-19T14:56:03;6.85;;;2.83;;
59571;SDS011;70118;45.638;11.714;2023-09-19T14:58:30;5.55;;;2.85;;
59571;SDS011;70118;45.638;11.714;2023-09-19T15:01:06;5.43;;;3.05;;
59571;SDS011;70118;45.638;11.714;2023-09-19T15:03:33;6.07;;;3.03;;
59571;SDS011;70118;45.638;11.714;2023-09-19T15:06:04;5.43;;;2.92;;
59571;SDS011;70118;45.638;11.714;2023-09-19T15:08:31;6.25;;;3.13;;
59571;SDS011;70118;45.638;11.714;2023-09-19T15:11:00;5.53;;;2.70;;
59571;SDS011;70118;45.638;11.714;2023-09-19T15:13:33;8.80;;;2.95;;
59571;SDS011;70118;45.638;11.714;2023-09-19T15:16:02;5.97;;;2.60;;
59571;SDS011;70118;45.638;11.714;2023-09-19T15:18:29;7.38;;;2.90;;
59571;SDS011;70118;45.638;11.714;2023-09-19T15:20:56;6.28;;;2.60;;
59571;SDS011;70118;45.638;11.714;2023-09-19T15:23:22;5.90;;;2.60;;
59571;SDS011;70118;45.638;11.714;2023-09-19T15:25:48;5.43;;;2.70;;
59571;SDS011;70118;45.638;11.714;2023-09-19T15:28:15;6.17;;;2.77;;
59571;SDS011;70118;45.638;11.714;2023-09-19T15:30:40;7.72;;;2.60;;
59571;SDS011;70118;45.638;11.714;2023-09-19T15:33:06;5.80;;;2.40;;
59571;SDS011;70118;45.638;11.714;2023-09-19T15:35:32;6.27;;;2.73;;
59571;SDS011;70118;45.638;11.714;2023-09-19T15:37:58;6.27;;;2.77;;
59571;SDS011;70118;45.638;11.714;2023-09-19T15:40:26;8.13;;;2.85;;
59571;SDS011;70118;45.638;11.714;2023-09-19T15:42:53;4.97;;;2.55;;
59571;SDS011;70118;45.638;11.714;2023-09-19T15:45:21;7.38;;;2.40;;
59571;SDS011;70118;45.638;11.714;2023-09-19T15:47:47;5.53;;;2.37;;